sensor_id;sensor_type;location;lat;lon;timestamp;pressure;altitude;pressure_sealevel;temperature;humidity
70206;BME280;57593;55.896;37.396;2023-03-01T00:00:04;98562.91;;;-4.52;100.00
70206;BME280;57593;55.896;37.396;2023-03-01T00:00:41;98564.22;;;-4.55;100.00
70206;BME280;57593;55.896;37.396;2023-03-01T00:01:21;98563.56;;;-4.72;100.00
70206;BME280;57593;55.896;37.396;2023-03-01T00:01:51;98556.56;;;-4.82;100.00
70206;BME280;57593;55.896;37.396;2023-03-01T00:02:22;98564.34;;;-4.77;100.00
70206;BME280;57593;55.896;37.396;2023-03-01T00:02:52;98553.50;;;-4.79;100.00
70206;BME280;57593;55.896;37.396;2023-03-01T00:03:23;98558.97;;;-4.70;100.00
70206;BME280;57593;55.896;37.396;2023-03-01T00:03:55;98559.19;;;-4.77;100.00
70206;BME280;57593;55.896;37.396;2023-03-01T00:04:26;98565.34;;;-4.78;100.00
70206;BME280;57593;55.896;37.396;2023-03-01T00:04:57;98561.00;;;-4.72;100.00
70206;BME280;57593;55.896;37.396;2023-03-01T00:05:28;98563.28;;;-4.81;100.00
70206;BME280;57593;55.896;37.396;2023-03-01T00:05:59;98554.31;;;-4.73;100.00
70206;BME280;57593;55.896;37.396;2023-03-01T00:06:30;98558.16;;;-4.71;100.00
70206;BME280;57593;55.896;37.396;2023-03-01T00:07:01;98564.34;;;-4.77;100.00
70206;BME280;57593;55.896;37.396;2023-03-01T00:07:31;98556.31;;;-4.80;100.00
70206;BME280;57593;55.896;37.396;2023-03-01T00:08:02;98550.31;;;-4.91;100.00
70206;BME280;57593;55.896;37.396;2023-03-01T00:08:33;98563.78;;;-4.79;100.00
70206;BME280;57593;55.896;37.396;2023-03-01T00:09:04;98561.72;;;-4.82;100.00
70206;BME280;57593;55.896;37.396;2023-03-01T00:09:36;98564.50;;;-4.94;100.00
70206;BME280;57593;55.896;37.396;2023-03-01T00:10:07;98557.84;;;-4.84;100.00
70206;BME280;57593;55.896;37.396;2023-03-01T00:10:38;98556.63;;;-4.77;100.00
70206;BME280;57593;55.896;37.396;2023-03-01T00:11:49;98555.31;;;-4.79;100.00
70206;BME280;57593;55.896;37.396;2023-03-01T00:12:20;98557.88;;;-4.79;100.00
70206;BME280;57593;55.896;37.396;2023-03-01T00:12:50;98554.00;;;-4.82;100.00
70206;BME280;57593;55.896;37.396;2023-03-01T00:13:21;98549.91;;;-4.78;100.00
70206;BME280;57593;55.896;37.396;2023-03-01T00:13:54;98554.28;;;-4.78;100.00
70206;BME280;57593;55.896;37.396;2023-03-01T00:14:26;98553.50;;;-4.79;100.00
70206;BME280;57593;55.896;37.396;2023-03-01T00:14:56;98562.06;;;-5.06;100.00
70206;BME280;57593;55.896;37.396;2023-03-01T00:15:27;98557.25;;;-4.97;100.00
70206;BME280;57593;55.896;37.396;2023-03-01T00:15:57;98555.69;;;-4.98;100.00
70206;BME280;57593;55.896;37.396;2023-03-01T00:16:31;98553.41;;;-4.94;100.00
70206;BME280;57593;55.896;37.396;2023-03-01T00:17:03;98555.78;;;-4.88;100.00
70206;BME280;57593;55.896;37.396;2023-03-01T00:17:34;98545.16;;;-4.91;100.00
70206;BME280;57593;55.896;37.396;2023-03-01T00:18:05;98553.94;;;-4.92;100.00
70206;BME280;57593;55.896;37.396;2023-03-01T00:18:35;98548.03;;;-4.88;100.00
70206;BME280;57593;55.896;37.396;2023-03-01T00:19:12;98563.00;;;-4.84;100.00
70206;BME280;57593;55.896;37.396;2023-03-01T00:19:43;98559.69;;;-4.80;100.00
70206;BME280;57593;55.896;37.396;2023-03-01T00:20:14;98565.34;;;-4.83;100.00
70206;BME280;57593;55.896;37.396;2023-03-01T00:20:55;98555.78;;;-4.88;100.00
70206;BME280;57593;55.896;37.396;2023-03-01T00:21:26;98548.25;;;-4.94;100.00
70206;BME280;57593;55.896;37.396;2023-03-01T00:21:57;98546.94;;;-4.97;100.00
70206;BME280;57593;55.896;37.396;2023-03-01T00:22:28;98551.56;;;-4.99;100.00
70206;BME280;57593;55.896;37.396;2023-03-01T00:22:59;98552.34;;;-4.98;100.00
70206;BME280;57593;55.896;37.396;2023-03-01T00:23:29;98553.94;;;-4.92;100.00
70206;BME280;57593;55.896;37.396;2023-03-01T00:24:00;98554.69;;;-4.97;100.00
70206;BME280;57593;55.896;37.396;2023-03-01T00:24:31;98559.38;;;-4.89;100.00
70206;BME280;57593;55.896;37.396;2023-03-01T00:25:03;98555.97;;;-4.94;100.00
70206;BME280;57593;55.896;37.396;2023-03-01T00:25:41;98554.69;;;-4.97;100.00
70206;BME280;57593;55.896;37.396;2023-03-01T00:26:13;98556.16;;;-5.06;100.00
70206;BME280;57593;55.896;37.396;2023-03-01T00:26:44;98552.50;;;-5.10;100.00
70206;BME280;57593;55.896;37.396;2023-03-01T00:27:15;98554.50;;;-5.17;100.00
70206;BME280;57593;55.896;37.396;2023-03-01T00:27:46;98558.25;;;-5.03;100.00
70206;BME280;57593;55.896;37.396;2023-03-01T00:28:19;98558.72;;;-5.06;100.00
70206;BME280;57593;55.896;37.396;2023-03-01T00:28:50;98554.84;;;-5.09;100.00
70206;BME280;57593;55.896;37.396;2023-03-01T00:29:23;98561.34;;;-5.01;100.00
70206;BME280;57593;55.896;37.396;2023-03-01T00:29:54;98561.84;;;-4.99;100.00
70206;BME280;57593;55.896;37.396;2023-03-01T00:30:25;98549.78;;;-4.98;100.00
70206;BME280;57593;55.896;37.396;2023-03-01T00:31:06;98550.03;;;-5.00;100.00
70206;BME280;57593;55.896;37.396;2023-03-01T00:31:37;98555.09;;;-5.10;100.00
70206;BME280;57593;55.896;37.396;2023-03-01T00:32:09;98558.94;;;-5.13;100.00
70206;BME280;57593;55.896;37.396;2023-03-01T00:32:40;98557.41;;;-5.09;100.00
70206;BME280;57593;55.896;37.396;2023-03-01T00:33:10;98558.25;;;-5.03;100.00
70206;BME280;57593;55.896;37.396;2023-03-01T00:33:42;98565.16;;;-5.09;100.00
70206;BME280;57593;55.896;37.396;2023-03-01T00:34:13;98562.84;;;-5.05;100.00
70206;BME280;57593;55.896;37.396;2023-03-01T00:34:43;98549.19;;;-5.11;100.00
70206;BME280;57593;55.896;37.396;2023-03-01T00:35:24;98549.66;;;-5.14;100.00
70206;BME280;57593;55.896;37.396;2023-03-01T00:35:57;98550.09;;;-5.22;100.00
70206;BME280;57593;55.896;37.396;2023-03-01T00:36:33;98549.38;;;-5.17;100.00
70206;BME280;57593;55.896;37.396;2023-03-01T00:37:04;98555.22;;;-5.27;100.00
70206;BME280;57593;55.896;37.396;2023-03-01T00:37:35;98561.19;;;-5.21;100.00
70206;BME280;57593;55.896;37.396;2023-03-01T00:38:06;98552.19;;;-5.19;100.00
70206;BME280;57593;55.896;37.396;2023-03-01T00:38:39;98555.13;;;-5.05;100.00
70206;BME280;57593;55.896;37.396;2023-03-01T00:39:12;98548.38;;;-5.11;100.00
70206;BME280;57593;55.896;37.396;2023-03-01T00:39:43;98552.03;;;-5.07;100.00
70206;BME280;57593;55.896;37.396;2023-03-01T00:40:14;98548.19;;;-5.04;100.00
70206;BME280;57593;55.896;37.396;2023-03-01T00:40:46;98546.59;;;-5.11;100.00
70206;BME280;57593;55.896;37.396;2023-03-01T00:41:18;98557.41;;;-5.09;100.00
70206;BME280;57593;55.896;37.396;2023-03-01T00:41:49;98551.56;;;-4.99;100.00
70206;BME280;57593;55.896;37.396;2023-03-01T00:42:20;98549.47;;;-5.02;100.00
70206;BME280;57593;55.896;37.396;2023-03-01T00:42:52;98552.00;;;-5.12;100.00
70206;BME280;57593;55.896;37.396;2023-03-01T00:43:23;98550.78;;;-4.99;100.00
70206;BME280;57593;55.896;37.396;2023-03-01T00:43:54;98543.56;;;-5.02;100.00
70206;BME280;57593;55.896;37.396;2023-03-01T00:44:25;98541.47;;;-5.06;100.00
70206;BME280;57593;55.896;37.396;2023-03-01T00:44:55;98540.88;;;-5.18;100.00
70206;BME280;57593;55.896;37.396;2023-03-01T00:45:26;98544.50;;;-5.14;100.00
70206;BME280;57593;55.896;37.396;2023-03-01T00:46:01;98551.44;;;-5.14;100.00
70206;BME280;57593;55.896;37.396;2023-03-01T00:46:32;98545.63;;;-5.04;100.00
70206;BME280;57593;55.896;37.396;2023-03-01T00:47:04;98539.63;;;-5.10;100.00
70206;BME280;57593;55.896;37.396;2023-03-01T00:47:35;98542.44;;;-5.17;100.00
70206;BME280;57593;55.896;37.396;2023-03-01T00:48:06;98545.28;;;-5.13;100.00
70206;BME280;57593;55.896;37.396;2023-03-01T00:48:38;98540.16;;;-5.08;100.00
70206;BME280;57593;55.896;37.396;2023-03-01T00:49:09;98546.59;;;-5.11;100.00
70206;BME280;57593;55.896;37.396;2023-03-01T00:49:40;98549.69;;;-5.09;100.00
70206;BME280;57593;55.896;37.396;2023-03-01T00:50:11;98547.38;;;-5.10;100.00
70206;BME280;57593;55.896;37.396;2023-03-01T00:50:42;98544.81;;;-5.05;100.00
70206;BME280;57593;55.896;37.396;2023-03-01T00:51:45;98541.22;;;-5.09;100.00
70206;BME280;57593;55.896;37.396;2023-03-01T00:52:15;98547.03;;;-5.19;100.00
70206;BME280;57593;55.896;37.396;2023-03-01T00:52:46;98544.28;;;-5.07;100.00
70206;BME280;57593;55.896;37.396;2023-03-01T00:53:17;98543.31;;;-5.01;100.00
70206;BME280;57593;55.896;37.396;2023-03-01T00:53:52;98543.34;;;-4.96;100.00
70206;BME280;57593;55.896;37.396;2023-03-01T00:54:23;98536.81;;;-5.09;100.00
70206;BME280;57593;55.896;37.396;2023-03-01T00:54:53;98538.69;;;-4.99;100.00
70206;BME280;57593;55.896;37.396;2023-03-01T00:55:24;98548.25;;;-4.94;100.00
70206;BME280;57593;55.896;37.396;2023-03-01T00:55:57;98538.50;;;-4.92;100.00
70206;BME280;57593;55.896;37.396;2023-03-01T00:56:28;98539.84;;;-5.17;100.00
70206;BME280;57593;55.896;37.396;2023-03-01T00:57:00;98531.94;;;-5.05;100.00
70206;BME280;57593;55.896;37.396;2023-03-01T00:57:30;98543.88;;;-4.94;100.00
70206;BME280;57593;55.896;37.396;2023-03-01T00:58:01;98540.56;;;-4.89;100.00
70206;BME280;57593;55.896;37.396;2023-03-01T00:58:33;98540.25;;;-4.93;100.00
70206;BME280;57593;55.896;37.396;2023-03-01T00:59:04;98532.34;;;-4.86;100.00
70206;BME280;57593;55.896;37.396;2023-03-01T00:59:35;98537.25;;;-4.84;100.00
70206;BME280;57593;55.896;37.396;2023-03-01T01:00:06;98540.97;;;-5.08;100.00
70206;BME280;57593;55.896;37.396;2023-03-01T01:00:37;98536.31;;;-5.11;100.00
70206;BME280;57593;55.896;37.396;2023-03-01T01:01:47;98540.50;;;-4.94;100.00
70206;BME280;57593;55.896;37.396;2023-03-01T01:02:18;98527.97;;;-4.80;100.00
70206;BME280;57593;55.896;37.396;2023-03-01T01:02:49;98528.13;;;-4.97;100.00
70206;BME280;57593;55.896;37.396;2023-03-01T01:03:21;98536.94;;;-4.88;100.00
70206;BME280;57593;55.896;37.396;2023-03-01T01:03:54;98540.75;;;-4.96;100.00
70206;BME280;57593;55.896;37.396;2023-03-01T01:04:25;98539.91;;;-5.07;100.00
70206;BME280;57593;55.896;37.396;2023-03-01T01:04:56;98534.75;;;-5.07;100.00
70206;BME280;57593;55.896;37.396;2023-03-01T01:05:27;98526.53;;;-5.03;100.00
70206;BME280;57593;55.896;37.396;2023-03-01T01:05:57;98533.75;;;-5.06;100.00
70206;BME280;57593;55.896;37.396;2023-03-01T01:06:31;98529.66;;;-5.01;100.00
70206;BME280;57593;55.896;37.396;2023-03-01T01:07:02;98534.28;;;-5.03;100.00
70206;BME280;57593;55.896;37.396;2023-03-01T01:07:33;98544.50;;;-5.14;100.00
70206;BME280;57593;55.896;37.396;2023-03-01T01:08:03;98532.41;;;-5.13;100.00
70206;BME280;57593;55.896;37.396;2023-03-01T01:08:34;98540.09;;;-5.18;100.00
70206;BME280;57593;55.896;37.396;2023-03-01T01:09:06;98539.63;;;-5.15;100.00
70206;BME280;57593;55.896;37.396;2023-03-01T01:09:37;98536.25;;;-5.16;100.00
70206;BME280;57593;55.896;37.396;2023-03-01T01:10:08;98532.19;;;-5.07;100.00
70206;BME280;57593;55.896;37.396;2023-03-01T01:10:44;98540.16;;;-5.08;100.00
70206;BME280;57593;55.896;37.396;2023-03-01T01:11:15;98543.16;;;-5.21;100.00
70206;BME280;57593;55.896;37.396;2023-03-01T01:11:49;98541.09;;;-5.25;100.00
70206;BME280;57593;55.896;37.396;2023-03-01T01:12:20;98530.09;;;-5.15;100.00
70206;BME280;57593;55.896;37.396;2023-03-01T01:12:50;98536.25;;;-5.16;100.00
70206;BME280;57593;55.896;37.396;2023-03-01T01:13:21;98524.41;;;-5.17;100.00
70206;BME280;57593;55.896;37.396;2023-03-01T01:13:52;98528.53;;;-5.16;100.00
70206;BME280;57593;55.896;37.396;2023-03-01T01:14:23;98523.34;;;-5.21;100.00
70206;BME280;57593;55.896;37.396;2023-03-01T01:14:54;98528.97;;;-5.24;100.00
70206;BME280;57593;55.896;37.396;2023-03-01T01:15:24;98542.44;;;-5.17;100.00
70206;BME280;57593;55.896;37.396;2023-03-01T01:16:00;98532.84;;;-5.27;100.00
70206;BME280;57593;55.896;37.396;2023-03-01T01:16:31;98527.50;;;-5.15;100.00
70206;BME280;57593;55.896;37.396;2023-03-01T01:17:01;98544.22;;;-5.17;100.00
70206;BME280;57593;55.896;37.396;2023-03-01T01:17:32;98542.94;;;-5.20;100.00
70206;BME280;57593;55.896;37.396;2023-03-01T01:18:03;98544.38;;;-5.34;100.00
70206;BME280;57593;55.896;37.396;2023-03-01T01:18:34;98543.63;;;-5.30;100.00
70206;BME280;57593;55.896;37.396;2023-03-01T01:19:06;98544.41;;;-5.29;100.00
70206;BME280;57593;55.896;37.396;2023-03-01T01:19:36;98552.81;;;-5.39;100.00
70206;BME280;57593;55.896;37.396;2023-03-01T01:20:08;98545.63;;;-5.37;100.00
70206;BME280;57593;55.896;37.396;2023-03-01T01:20:38;98541.53;;;-5.33;100.00
70206;BME280;57593;55.896;37.396;2023-03-01T01:21:12;98532.25;;;-5.34;100.00
70206;BME280;57593;55.896;37.396;2023-03-01T01:21:43;98541.53;;;-5.33;100.00
70206;BME280;57593;55.896;37.396;2023-03-01T01:22:13;98549.75;;;-5.36;100.00
70206;BME280;57593;55.896;37.396;2023-03-01T01:22:44;98550.81;;;-5.32;100.00
70206;BME280;57593;55.896;37.396;2023-03-01T01:23:15;98548.53;;;-5.28;100.00
70206;BME280;57593;55.896;37.396;2023-03-01T01:23:47;98542.53;;;-5.39;100.00
70206;BME280;57593;55.896;37.396;2023-03-01T01:24:18;98540.72;;;-5.38;100.00
70206;BME280;57593;55.896;37.396;2023-03-01T01:24:49;98553.88;;;-5.35;100.00
70206;BME280;57593;55.896;37.396;2023-03-01T01:25:20;98551.22;;;-5.45;100.00
70206;BME280;57593;55.896;37.396;2023-03-01T01:25:50;98546.31;;;-5.47;100.00
70206;BME280;57593;55.896;37.396;2023-03-01T01:26:27;98548.72;;;-5.35;100.00
70206;BME280;57593;55.896;37.396;2023-03-01T01:26:58;98541.59;;;-5.28;100.00
70206;BME280;57593;55.896;37.396;2023-03-01T01:27:29;98551.16;;;-5.18;100.00
70206;BME280;57593;55.896;37.396;2023-03-01T01:28:00;98552.59;;;-5.32;100.00
70206;BME280;57593;55.896;37.396;2023-03-01T01:28:31;98542.03;;;-5.36;100.00
70206;BME280;57593;55.896;37.396;2023-03-01T01:29:04;98551.22;;;-5.45;100.00
70206;BME280;57593;55.896;37.396;2023-03-01T01:29:35;98544.50;;;-5.46;100.00
70206;BME280;57593;55.896;37.396;2023-03-01T01:30:07;98541.66;;;-5.50;100.00
70206;BME280;57593;55.896;37.396;2023-03-01T01:30:38;98538.06;;;-5.49;100.00
70206;BME280;57593;55.896;37.396;2023-03-01T01:31:08;98549.38;;;-5.50;100.00
70206;BME280;57593;55.896;37.396;2023-03-01T01:31:41;98546.81;;;-5.50;100.00
70206;BME280;57593;55.896;37.396;2023-03-01T01:32:12;98546.34;;;-5.42;100.00
70206;BME280;57593;55.896;37.396;2023-03-01T01:32:43;98548.09;;;-5.47;100.00
70206;BME280;57593;55.896;37.396;2023-03-01T01:33:14;98544.78;;;-5.43;100.00
70206;BME280;57593;55.896;37.396;2023-03-01T01:33:45;98542.06;;;-5.31;100.00
70206;BME280;57593;55.896;37.396;2023-03-01T01:34:18;98549.16;;;-5.43;100.00
70206;BME280;57593;55.896;37.396;2023-03-01T01:34:49;98549.94;;;-5.43;100.00
70206;BME280;57593;55.896;37.396;2023-03-01T01:35:20;98547.78;;;-5.24;100.00
70206;BME280;57593;55.896;37.396;2023-03-01T01:35:51;98546.38;;;-5.36;100.00
70206;BME280;57593;55.896;37.396;2023-03-01T01:36:22;98541.88;;;-5.19;100.00
70206;BME280;57593;55.896;37.396;2023-03-01T01:36:53;98540.25;;;-5.30;100.00
70206;BME280;57593;55.896;37.396;2023-03-01T01:37:24;98542.19;;;-5.15;100.00
70206;BME280;57593;55.896;37.396;2023-03-01T01:38:01;98540.84;;;-5.23;100.00
70206;BME280;57593;55.896;37.396;2023-03-01T01:38:32;98552.44;;;-5.20;100.00
70206;BME280;57593;55.896;37.396;2023-03-01T01:39:04;98549.31;;;-5.28;100.00
70206;BME280;57593;55.896;37.396;2023-03-01T01:39:35;98552.47;;;-5.15;100.00
70206;BME280;57593;55.896;37.396;2023-03-01T01:40:06;98545.53;;;-5.15;100.00
70206;BME280;57593;55.896;37.396;2023-03-01T01:40:43;98547.53;;;-5.22;100.00
70206;BME280;57593;55.896;37.396;2023-03-01T01:41:14;98545.00;;;-5.17;100.00
70206;BME280;57593;55.896;37.396;2023-03-01T01:41:45;98564.25;;;-5.25;100.00
70206;BME280;57593;55.896;37.396;2023-03-01T01:42:17;98558.59;;;-5.27;100.00
70206;BME280;57593;55.896;37.396;2023-03-01T01:42:48;98544.22;;;-5.17;100.00
70206;BME280;57593;55.896;37.396;2023-03-01T01:43:26;98539.81;;;-5.22;100.00
70206;BME280;57593;55.896;37.396;2023-03-01T01:44:16;98546.47;;;-5.26;100.00
70206;BME280;57593;55.896;37.396;2023-03-01T01:44:47;98540.81;;;-5.28;100.00
70206;BME280;57593;55.896;37.396;2023-03-01T01:45:35;98547.63;;;-5.12;100.00
70206;BME280;57593;55.896;37.396;2023-03-01T01:46:30;98552.44;;;-5.20;100.00
70206;BME280;57593;55.896;37.396;2023-03-01T01:47:10;98554.75;;;-5.19;100.00
70206;BME280;57593;55.896;37.396;2023-03-01T01:47:43;98548.34;;;-5.16;100.00
70206;BME280;57593;55.896;37.396;2023-03-01T01:48:20;98546.97;;;-5.29;100.00
70206;BME280;57593;55.896;37.396;2023-03-01T01:48:59;98545.66;;;-5.32;100.00
70206;BME280;57593;55.896;37.396;2023-03-01T01:49:47;98546.34;;;-5.42;100.00
70206;BME280;57593;55.896;37.396;2023-03-01T01:50:19;98545.88;;;-5.38;100.00
70206;BME280;57593;55.896;37.396;2023-03-01T01:50:55;98541.91;;;-5.51;100.00
70206;BME280;57593;55.896;37.396;2023-03-01T01:51:31;98538.34;;;-5.45;100.00
70206;BME280;57593;55.896;37.396;2023-03-01T01:52:17;98543.50;;;-5.45;100.00
70206;BME280;57593;55.896;37.396;2023-03-01T01:52:53;98539.13;;;-5.45;100.00
70206;BME280;57593;55.896;37.396;2023-03-01T01:53:24;98540.63;;;-5.49;100.00
70206;BME280;57593;55.896;37.396;2023-03-01T01:54:00;98544.50;;;-5.46;100.00
70206;BME280;57593;55.896;37.396;2023-03-01T01:55:12;98539.34;;;-5.51;100.00
70206;BME280;57593;55.896;37.396;2023-03-01T01:55:49;98545.22;;;-5.56;100.00
70206;BME280;57593;55.896;37.396;2023-03-01T01:56:23;98539.09;;;-5.50;100.00
70206;BME280;57593;55.896;37.396;2023-03-01T01:56:58;98540.63;;;-5.49;100.00
70206;BME280;57593;55.896;37.396;2023-03-01T01:57:37;98551.25;;;-5.40;100.00
70206;BME280;57593;55.896;37.396;2023-03-01T01:58:09;98545.38;;;-5.35;100.00
70206;BME280;57593;55.896;37.396;2023-03-01T01:58:41;98533.97;;;-5.45;100.00
70206;BME280;57593;55.896;37.396;2023-03-01T01:59:14;98546.31;;;-5.47;100.00
70206;BME280;57593;55.896;37.396;2023-03-01T01:59:49;98540.09;;;-5.51;100.00
70206;BME280;57593;55.896;37.396;2023-03-01T02:00:24;98540.19;;;-5.40;100.00
70206;BME280;57593;55.896;37.396;2023-03-01T02:00:55;98542.78;;;-5.40;100.00
70206;BME280;57593;55.896;37.396;2023-03-01T02:01:26;98543.28;;;-5.38;100.00
70206;BME280;57593;55.896;37.396;2023-03-01T02:01:59;98548.19;;;-5.37;100.00
70206;BME280;57593;55.896;37.396;2023-03-01T02:02:31;98545.41;;;-5.30;100.00
70206;BME280;57593;55.896;37.396;2023-03-01T02:03:13;98540.25;;;-5.30;100.00
70206;BME280;57593;55.896;37.396;2023-03-01T02:03:48;98543.03;;;-5.37;100.00
70206;BME280;57593;55.896;37.396;2023-03-01T02:04:19;98539.72;;;-5.37;100.00
70206;BME280;57593;55.896;37.396;2023-03-01T02:05:06;98539.50;;;-5.31;100.00
70206;BME280;57593;55.896;37.396;2023-03-01T02:06:00;98548.53;;;-5.55;100.00
70206;BME280;57593;55.896;37.396;2023-03-01T02:06:38;98550.53;;;-5.63;100.00
70206;BME280;57593;55.896;37.396;2023-03-01T02:07:19;98549.47;;;-5.67;100.00
70206;BME280;57593;55.896;37.396;2023-03-01T02:07:50;98547.16;;;-5.68;100.00
70206;BME280;57593;55.896;37.396;2023-03-01T02:08:27;98549.00;;;-5.64;100.00
70206;BME280;57593;55.896;37.396;2023-03-01T02:09:06;98543.69;;;-5.52;100.00
70206;BME280;57593;55.896;37.396;2023-03-01T02:09:39;98545.72;;;-5.54;100.00
70206;BME280;57593;55.896;37.396;2023-03-01T02:10:11;98539.84;;;-5.49;100.00
70206;BME280;57593;55.896;37.396;2023-03-01T02:10:43;98543.13;;;-5.59;100.00
70206;BME280;57593;55.896;37.396;2023-03-01T02:11:17;98539.03;;;-5.55;100.00
70206;BME280;57593;55.896;37.396;2023-03-01T02:11:49;98543.94;;;-5.53;100.00
70206;BME280;57593;55.896;37.396;2023-03-01T02:12:24;98543.88;;;-5.58;100.00
70206;BME280;57593;55.896;37.396;2023-03-01T02:12:56;98544.63;;;-5.63;100.00
70206;BME280;57593;55.896;37.396;2023-03-01T02:13:46;98546.50;;;-5.81;100.00
70206;BME280;57593;55.896;37.396;2023-03-01T02:14:17;98558.84;;;-5.83;100.00
70206;BME280;57593;55.896;37.396;2023-03-01T02:14:48;98552.44;;;-5.80;100.00
70206;BME280;57593;55.896;37.396;2023-03-01T02:15:18;98549.31;;;-5.82;100.00
70206;BME280;57593;55.896;37.396;2023-03-01T02:15:49;98548.50;;;-5.88;100.00
70206;BME280;57593;55.896;37.396;2023-03-01T02:16:20;98551.13;;;-5.83;100.00
70206;BME280;57593;55.896;37.396;2023-03-01T02:16:51;98549.31;;;-5.82;100.00
70206;BME280;57593;55.896;37.396;2023-03-01T02:17:22;98551.97;;;-5.72;100.00
70206;BME280;57593;55.896;37.396;2023-03-01T02:17:54;98553.09;;;-5.63;100.00
70206;BME280;57593;55.896;37.396;2023-03-01T02:18:25;98558.50;;;-5.64;100.00
70206;BME280;57593;55.896;37.396;2023-03-01T02:18:56;98544.22;;;-5.77;100.00
70206;BME280;57593;55.896;37.396;2023-03-01T02:19:40;98539.09;;;-5.77;100.00
70206;BME280;57593;55.896;37.396;2023-03-01T02:22:51;98553.72;;;-5.83;100.00
70206;BME280;57593;55.896;37.396;2023-03-01T02:22:56;98554.72;;;-5.84;100.00
70206;BME280;57593;55.896;37.396;2023-03-01T02:23:28;98548.56;;;-5.83;100.00
70206;BME280;57593;55.896;37.396;2023-03-01T02:24:07;98553.22;;;-5.80;100.00
70206;BME280;57593;55.896;37.396;2023-03-01T02:25:51;98551.66;;;-5.81;100.00
70206;BME280;57593;55.896;37.396;2023-03-01T02:26:32;98542.13;;;-5.80;100.00
70206;BME280;57593;55.896;37.396;2023-03-01T02:27:05;98544.47;;;-5.79;100.00
70206;BME280;57593;55.896;37.396;2023-03-01T02:28:46;98541.81;;;-5.89;100.00
70206;BME280;57593;55.896;37.396;2023-03-01T02:29:17;98561.09;;;-5.86;100.00
70206;BME280;57593;55.896;37.396;2023-03-01T02:29:47;98565.53;;;-5.82;100.00
70206;BME280;57593;55.896;37.396;2023-03-01T02:30:19;98554.19;;;-5.86;100.00
70206;BME280;57593;55.896;37.396;2023-03-01T02:30:51;98552.44;;;-5.80;100.00
70206;BME280;57593;55.896;37.396;2023-03-01T02:31:41;98547.31;;;-5.75;100.00
70206;BME280;57593;55.896;37.396;2023-03-01T02:32:12;98545.06;;;-5.71;100.00
70206;BME280;57593;55.896;37.396;2023-03-01T02:32:46;98554.81;;;-5.73;100.00
70206;BME280;57593;55.896;37.396;2023-03-01T02:33:17;98560.78;;;-5.95;100.00
70206;BME280;57593;55.896;37.396;2023-03-01T02:33:48;98549.44;;;-5.94;100.00
70206;BME280;57593;55.896;37.396;2023-03-01T02:34:21;98551.53;;;-5.91;100.00
70206;BME280;57593;55.896;37.396;2023-03-01T02:34:53;98560.13;;;-5.80;100.00
70206;BME280;57593;55.896;37.396;2023-03-01T02:35:25;98553.72;;;-5.83;100.00
70206;BME280;57593;55.896;37.396;2023-03-01T02:35:57;98552.66;;;-5.82;100.00
70206;BME280;57593;55.896;37.396;2023-03-01T02:36:31;98559.94;;;-5.73;100.00
70206;BME280;57593;55.896;37.396;2023-03-01T02:37:10;98566.50;;;-5.88;100.00
70206;BME280;57593;55.896;37.396;2023-03-01T02:37:44;98563.19;;;-5.83;100.00
70206;BME280;57593;55.896;37.396;2023-03-01T02:38:15;98560.88;;;-5.85;100.00
70206;BME280;57593;55.896;37.396;2023-03-01T02:38:48;98552.59;;;-5.92;100.00
70206;BME280;57593;55.896;37.396;2023-03-01T02:39:25;98549.53;;;-5.89;100.00
70206;BME280;57593;55.896;37.396;2023-03-01T02:39:59;98558.72;;;-5.93;100.00
70206;BME280;57593;55.896;37.396;2023-03-01T02:40:33;98548.97;;;-5.91;100.00
70206;BME280;57593;55.896;37.396;2023-03-01T02:41:06;98551.66;;;-5.81;100.00
70206;BME280;57593;55.896;37.396;2023-03-01T02:41:39;98559.84;;;-5.84;100.00
70206;BME280;57593;55.896;37.396;2023-03-01T02:42:17;98566.97;;;-5.91;100.00
70206;BME280;57593;55.896;37.396;2023-03-01T02:42:54;98554.44;;;-5.87;100.00
70206;BME280;57593;55.896;37.396;2023-03-01T02:43:29;98545.25;;;-5.78;100.00
70206;BME280;57593;55.896;37.396;2023-03-01T02:44:02;98539.38;;;-5.73;100.00
70206;BME280;57593;55.896;37.396;2023-03-01T02:44:33;98544.44;;;-5.84;100.00
70206;BME280;57593;55.896;37.396;2023-03-01T02:45:04;98555.91;;;-5.91;100.00
70206;BME280;57593;55.896;37.396;2023-03-01T02:45:35;98547.25;;;-5.85;100.00
70206;BME280;57593;55.896;37.396;2023-03-01T02:46:19;98566.22;;;-5.91;100.00
70206;BME280;57593;55.896;37.396;2023-03-01T02:46:52;98547.47;;;-5.87;100.00
70206;BME280;57593;55.896;37.396;2023-03-01T02:47:24;98553.88;;;-5.89;100.00
70206;BME280;57593;55.896;37.396;2023-03-01T02:47:56;98551.53;;;-5.91;100.00
70206;BME280;57593;55.896;37.396;2023-03-01T02:48:27;98551.13;;;-5.83;100.00
70206;BME280;57593;55.896;37.396;2023-03-01T02:48:58;98560.34;;;-5.87;100.00
70206;BME280;57593;55.896;37.396;2023-03-01T02:49:31;98555.72;;;-5.85;100.00
70206;BME280;57593;55.896;37.396;2023-03-01T02:50:16;98557.84;;;-5.77;100.00
70206;BME280;57593;55.896;37.396;2023-03-01T02:51:17;98563.41;;;-5.90;100.00
70206;BME280;57593;55.896;37.396;2023-03-01T02:52:54;98557.00;;;-5.87;100.00
70206;BME280;57593;55.896;37.396;2023-03-01T02:53:48;98552.38;;;-5.85;100.00
70206;BME280;57593;55.896;37.396;2023-03-01T02:55:16;98549.69;;;-6.01;100.00
70206;BME280;57593;55.896;37.396;2023-03-01T02:55:48;98549.63;;;-6.06;100.00
70206;BME280;57593;55.896;37.396;2023-03-01T02:56:20;98549.56;;;-6.11;100.00
70206;BME280;57593;55.896;37.396;2023-03-01T02:56:51;98551.16;;;-6.05;100.00
70206;BME280;57593;55.896;37.396;2023-03-01T02:57:25;98555.78;;;-6.07;100.00
70206;BME280;57593;55.896;37.396;2023-03-01T02:58:00;98555.34;;;-5.99;100.00
70206;BME280;57593;55.896;37.396;2023-03-01T02:58:32;98563.31;;;-6.00;100.00
70206;BME280;57593;55.896;37.396;2023-03-01T02:59:11;98558.13;;;-6.05;100.00
70206;BME280;57593;55.896;37.396;2023-03-01T02:59:42;98558.84;;;-6.10;100.00